Time;durP1;ratioP1;P1;durP2;ratioP2;P2;SDS_P1;SDS_P2;PMS_P1;PMS_P2;Temp;Humidity;BMP_temperature;BMP_pressure;BME280_temperature;BME280_humidity;BME280_pressure;Samples;Min_cycle;Max_cycle;Signal;HPM_P1;HPM_P2
2021/03/27 00:02:32;;;;;;;9.93;5.30;;;;;;;8.03;61.42;100459.95;113780;1209;65200;-78
2021/03/27 00:05:19;;;;;;;10.03;6.73;;;;;;;7.97;61.68;100457.99;113214;1209;65540;-77
2021/03/27 00:07:51;;;;;;;13.33;5.47;;;;;;;7.93;61.65;100446.09;113063;1209;64525;-78
2021/03/27 00:10:42;;;;;;;8.27;4.83;;;;;;;7.89;62.18;100439.48;113101;1209;64336;-80
2021/03/27 00:13:24;;;;;;;8.25;4.90;;;;;;;7.86;62.72;100442.44;113320;1209;64343;-78
2021/03/27 00:15:57;;;;;;;10.73;5.47;;;;;;;7.81;62.25;100431.55;113093;1209;64308;-78
2021/03/27 00:18:31;;;;;;;8.50;4.77;;;;;;;7.79;62.67;100436.17;113359;1209;64349;-79
2021/03/27 00:21:09;;;;;;;9.87;5.63;;;;;;;7.75;62.79;100436.48;114649;1209;64381;-80
2021/03/27 00:23:57;;;;;;;8.37;5.13;;;;;;;7.73;63.18;100433.17;113116;1209;64384;-77
2021/03/27 00:26:27;;;;;;;11.87;5.00;;;;;;;7.72;63.06;100422.80;113145;1209;64435;-79
2021/03/27 00:29:19;;;;;;;9.33;4.70;;;;;;;7.69;63.06;100429.23;113014;1209;64266;-78
2021/03/27 00:31:50;;;;;;;9.10;5.35;;;;;;;7.67;63.31;100415.38;113243;1209;64381;-79
2021/03/27 00:34:21;;;;;;;8.60;4.50;;;;;;;7.66;63.41;100416.34;113710;1209;64508;-79
2021/03/27 00:36:55;;;;;;;11.40;5.85;;;;;;;7.66;63.29;100418.98;113228;1209;64400;-79
2021/03/27 00:39:31;;;;;;;8.30;5.20;;;;;;;7.64;63.68;100418.32;113203;1209;64304;-79
2021/03/27 00:42:12;;;;;;;10.00;4.67;;;;;;;7.62;63.48;100412.38;113234;1209;64473;-77
2021/03/27 00:44:52;;;;;;;10.17;4.87;;;;;;;7.60;63.82;100414.34;113152;1209;64827;-77
2021/03/27 00:47:23;;;;;;;8.80;5.40;;;;;;;7.55;63.65;100406.92;113226;1209;64616;-78
2021/03/27 00:50:23;;;;;;;13.03;4.70;;;;;;;7.54;63.75;100404.44;113127;1209;65442;-77
2021/03/27 00:52:55;;;;;;;6.43;4.20;;;;;;;7.50;63.97;100403.11;113004;1209;65271;-78
2021/03/27 00:55:41;;;;;;;10.00;5.05;;;;;;;7.49;64.55;100390.91;113143;1209;65311;-78
2021/03/27 00:58:21;;;;;;;6.47;4.63;;;;;;;7.48;64.67;100386.61;113128;1209;64371;-78
2021/03/27 01:00:50;;;;;;;8.37;4.47;;;;;;;7.49;64.62;100385.63;113003;1209;64445;-78
2021/03/27 01:03:31;;;;;;;8.10;4.55;;;;;;;7.51;64.79;100383.66;113196;1209;64377;-76
2021/03/27 01:05:58;;;;;;;7.43;3.93;;;;;;;7.55;64.79;100385.80;113038;1209;64384;-78
2021/03/27 01:08:28;;;;;;;7.80;4.40;;;;;;;7.57;64.42;100366.36;113113;1209;64464;-77
2021/03/27 01:11:01;;;;;;;8.75;5.25;;;;;;;7.59;64.46;100364.35;113143;1209;65143;-78
2021/03/27 01:13:49;;;;;;;11.77;5.83;;;;;;;7.63;64.28;100370.95;112989;1209;64460;-79
2021/03/27 01:16:20;;;;;;;12.03;5.90;;;;;;;7.66;64.84;100360.91;113202;1209;64381;-80
2021/03/27 01:18:52;;;;;;;13.93;5.80;;;;;;;7.69;64.57;100355.31;113169;1209;64336;-79
2021/03/27 01:21:26;;;;;;;12.90;5.70;;;;;;;7.72;64.50;100348.87;113308;1209;64375;-78
2021/03/27 01:23:59;;;;;;;11.63;5.73;;;;;;;7.71;64.46;100348.05;113224;1209;64390;-78
2021/03/27 01:26:35;;;;;;;9.97;5.23;;;;;;;7.69;64.50;100344.75;113202;1209;64486;-78
2021/03/27 01:29:05;;;;;;;9.33;5.40;;;;;;;7.68;64.85;100332.52;113225;1209;64355;-78
2021/03/27 01:31:48;;;;;;;12.17;5.30;;;;;;;7.65;64.57;100332.87;113367;1209;64442;-78
2021/03/27 01:34:42;;;;;;;8.27;5.03;;;;;;;7.60;64.49;100329.06;113305;1209;64381;-78
2021/03/27 01:37:23;;;;;;;8.25;4.45;;;;;;;7.53;64.70;100319.16;113188;1209;64394;-78
2021/03/27 01:40:25;;;;;;;10.30;4.60;;;;;;;7.45;64.73;100318.33;113163;1209;64522;-77
2021/03/27 01:43:12;;;;;;;9.57;4.87;;;;;;;7.38;65.08;100323.44;113190;1209;64358;-79
2021/03/27 01:45:57;;;;;;;7.13;4.87;;;;;;;7.31;65.61;100314.50;113145;1209;64869;-78
2021/03/27 01:49:11;;;;;;;7.17;3.73;;;;;;;7.27;65.34;100307.94;113170;1209;64362;-81
2021/03/27 01:51:38;;;;;;;5.50;3.07;;;;;;;7.25;65.69;100315.18;113474;1209;64867;-79
2021/03/27 01:54:13;;;;;;;6.87;3.47;;;;;;;7.25;66.22;100302.81;113374;1209;64463;-78
2021/03/27 01:57:20;;;;;;;5.75;3.30;;;;;;;7.26;66.18;100293.89;113257;1209;64381;-79
2021/03/27 01:59:58;;;;;;;7.97;3.63;;;;;;;7.32;66.11;100290.60;113238;1209;64387;-78
2021/03/27 02:02:51;;;;;;;7.80;3.07;;;;;;;7.40;66.08;100286.34;113297;1209;64948;-78
2021/03/27 02:05:55;;;;;;;6.60;3.53;;;;;;;7.42;65.83;100287.82;113273;1209;64358;-78
2021/03/27 02:08:52;;;;;;;8.03;4.77;;;;;;;7.44;65.59;100287.63;113178;1209;64860;-80
2021/03/27 02:11:45;;;;;;;6.05;3.40;;;;;;;7.47;65.86;100282.86;113176;1209;64384;-79
2021/03/27 02:14:30;;;;;;;8.37;4.33;;;;;;;7.50;65.73;100285.19;113107;1209;64320;-78
2021/03/27 02:17:10;;;;;;;7.35;4.08;;;;;;;7.53;65.48;100284.03;113278;1209;64384;-78
2021/03/27 02:20:09;;;;;;;7.23;3.87;;;;;;;7.53;65.43;100276.92;113240;1209;64372;-80
2021/03/27 02:22:48;;;;;;;6.20;3.30;;;;;;;7.55;65.43;100274.13;113023;1209;64444;-78
2021/03/27 02:25:39;;;;;;;5.70;3.30;;;;;;;7.55;65.71;100274.95;113455;1209;64333;-78
2021/03/27 02:28:37;;;;;;;4.83;2.20;;;;;;;7.56;65.68;100262.56;113261;1209;64410;-76
2021/03/27 02:31:36;;;;;;;8.75;4.35;;;;;;;7.55;65.58;100258.30;113217;1209;64424;-79
2021/03/27 02:34:38;;;;;;;7.77;3.63;;;;;;;7.56;65.61;100249.37;113180;1209;64525;-79
2021/03/27 02:37:07;;;;;;;7.15;3.15;;;;;;;7.58;65.82;100247.39;113239;1209;64682;-78
2021/03/27 02:39:44;;;;;;;7.75;4.60;;;;;;;7.61;65.91;100244.44;113238;1209;64851;-80
2021/03/27 02:42:49;;;;;;;9.20;3.90;;;;;;;7.66;65.59;100241.29;113212;1209;64359;-80
2021/03/27 02:45:22;;;;;;;7.45;4.00;;;;;;;7.72;65.69;100243.27;113306;1209;64310;-80
2021/03/27 02:48:30;;;;;;;7.30;3.93;;;;;;;7.75;65.87;100238.45;113297;1209;64310;-80
2021/03/27 02:51:08;;;;;;;6.23;3.27;;;;;;;7.79;65.92;100233.66;113209;1209;64508;-79
2021/03/27 02:53:58;;;;;;;7.00;3.67;;;;;;;7.83;65.82;100250.83;113360;1209;64358;-78
2021/03/27 02:56:30;;;;;;;8.90;4.40;;;;;;;7.89;65.72;100259.91;113206;1209;65833;-79
2021/03/27 02:59:31;;;;;;;10.07;4.03;;;;;;;7.92;65.72;100270.94;113451;1209;64345;-81
2021/03/27 03:02:12;;;;;;;6.50;3.83;;;;;;;7.96;66.09;100279.35;113197;1209;64387;-79
2021/03/27 03:05:00;;;;;;;9.20;3.95;;;;;;;8.07;66.30;100283.45;113257;1209;64397;-78
2021/03/27 03:08:07;;;;;;;5.55;3.20;;;;;;;8.25;66.21;100297.30;113391;1209;64426;-78
2021/03/27 03:10:43;;;;;;;4.45;2.40;;;;;;;8.51;65.12;100302.34;113180;1209;64356;-77
2021/03/27 03:13:37;;;;;;;5.63;3.17;;;;;;;8.73;64.96;100316.66;113297;1209;64474;-78
2021/03/27 03:16:22;;;;;;;7.67;3.20;;;;;;;8.89;65.21;100315.74;113157;1209;64345;-79
2021/03/27 03:19:01;;;;;;;5.13;2.55;;;;;;;9.02;65.27;100311.72;113258;1209;66330;-77
2021/03/27 03:21:35;;;;;;;5.45;2.70;;;;;;;9.09;67.25;100310.01;113190;1209;64397;-75
2021/03/27 03:24:15;;;;;;;5.60;2.83;;;;;;;9.14;67.29;100319.08;113086;1209;64416;-77
2021/03/27 03:27:06;;;;;;;5.23;2.40;;;;;;;9.19;66.95;100310.61;113003;1209;65613;-76
2021/03/27 03:29:42;;;;;;;4.97;2.43;;;;;;;9.22;67.30;100327.95;113169;1209;64378;-77
2021/03/27 03:32:27;;;;;;;4.73;2.57;;;;;;;9.19;67.85;100337.89;112904;1209;64490;-77
2021/03/27 03:35:07;;;;;;;4.70;2.73;;;;;;;9.20;68.14;100346.65;113102;1209;64352;-76
2021/03/27 03:38:05;;;;;;;7.13;2.90;;;;;;;9.17;68.86;100344.36;113118;1209;64359;-78
2021/03/27 03:40:51;;;;;;;3.75;2.30;;;;;;;9.11;69.58;100351.17;113018;1209;64381;-77
2021/03/27 03:43:17;;;;;;;4.80;3.27;;;;;;;9.06;69.89;100350.88;113058;1209;64438;-77
2021/03/27 03:46:14;;;;;;;6.10;4.10;;;;;;;9.01;69.71;100358.52;113239;1209;64467;-78
2021/03/27 03:49:02;;;;;;;4.10;2.80;;;;;;;8.97;70.38;100373.09;113181;1209;64364;-79
2021/03/27 03:51:50;;;;;;;8.50;3.50;;;;;;;8.94;70.98;100361.00;113175;1209;64365;-80
2021/03/27 03:54:51;;;;;;;5.90;3.50;;;;;;;8.89;71.20;100363.36;113334;1209;64477;-79
2021/03/27 03:57:30;;;;;;;4.77;2.57;;;;;;;8.78;71.93;100372.49;113132;1209;64378;-77
2021/03/27 04:00:10;;;;;;;4.80;2.55;;;;;;;8.61;70.96;100401.78;112961;1209;64502;-76
2021/03/27 04:03:03;;;;;;;4.30;1.80;;;;;;;8.24;71.77;100416.36;113267;1209;64426;-77
2021/03/27 04:05:41;;;;;;;3.77;2.87;;;;;;;7.95;73.64;100429.09;113199;1209;64589;-77
2021/03/27 04:08:22;;;;;;;4.57;2.27;;;;;;;7.73;75.28;100466.68;113392;1209;64384;-77
2021/03/27 04:11:06;;;;;;;3.53;2.10;;;;;;;7.53;73.79;100524.22;113073;1209;64413;-78
2021/03/27 04:13:40;;;;;;;1.47;1.00;;;;;;;7.15;73.16;100481.50;113031;1209;64445;-77
2021/03/27 04:16:15;;;;;;;1.10;0.78;;;;;;;6.92;73.32;100486.48;113008;1209;64380;-77
2021/03/27 04:18:51;;;;;;;1.73;0.70;;;;;;;6.71;75.31;100471.03;113167;1209;64937;-76
2021/03/27 04:21:20;;;;;;;0.77;0.53;;;;;;;6.46;76.32;100486.70;113139;1209;64320;-82
2021/03/27 04:24:04;;;;;;;1.20;0.80;;;;;;;6.25;77.09;100478.30;113352;1209;64458;-81
2021/03/27 04:26:41;;;;;;;2.65;0.50;;;;;;;6.07;78.68;100496.73;113216;1209;64448;-81
2021/03/27 04:29:37;;;;;;;1.43;0.90;;;;;;;5.96;78.72;100497.78;114068;1209;64969;-81
2021/03/27 04:32:19;;;;;;;1.20;0.80;;;;;;;5.87;80.12;100514.45;113525;1209;64384;-80
2021/03/27 04:34:52;;;;;;;1.70;1.10;;;;;;;5.81;81.12;100520.30;113582;1209;64349;-81
2021/03/27 04:37:38;;;;;;;1.20;0.77;;;;;;;5.77;81.42;100529.47;113266;1209;64391;-81
2021/03/27 04:40:30;;;;;;;1.23;0.70;;;;;;;5.70;81.36;100532.69;113329;1209;64547;-82
2021/03/27 04:43:28;;;;;;;1.20;0.70;;;;;;;5.60;80.46;100567.92;114320;1209;64308;-86
2021/03/27 04:46:26;;;;;;;0.67;0.40;;;;;;;5.47;80.31;100570.89;114828;1209;64416;-87
2021/03/27 04:49:22;;;;;;;2.27;0.70;;;;;;;5.38;80.50;100551.55;114224;1209;64374;-86
2021/03/27 04:51:49;;;;;;;;;;;;;;;5.27;80.94;100573.59;114473;1217;64310;-87
2021/03/27 04:54:38;;;;;;;1.13;0.50;;;;;;;5.24;81.22;100559.89;114650;1209;64406;-87
2021/03/27 04:57:20;;;;;;;1.80;0.80;;;;;;;5.20;81.91;100554.08;114413;1209;64490;-86
2021/03/27 04:59:57;;;;;;;3.75;0.65;;;;;;;5.15;82.98;100560.77;114419;1209;64359;-86
2021/03/27 05:02:37;;;;;;;1.00;0.65;;;;;;;5.13;83.73;100552.19;114224;1209;64317;-85
2021/03/27 05:05:26;;;;;;;1.23;0.97;;;;;;;5.13;83.84;100563.53;114551;1209;64390;-86
2021/03/27 05:08:12;;;;;;;2.80;1.15;;;;;;;5.13;83.68;100563.53;114601;1209;61965;-86
2021/03/27 05:10:46;;;;;;;2.03;0.80;;;;;;;5.14;84.61;100559.91;114334;1209;64275;-85
2021/03/27 05:13:18;;;;;;;1.67;1.13;;;;;;;5.14;84.44;100575.69;114345;1209;64377;-86
2021/03/27 05:16:23;;;;;;;2.13;1.10;;;;;;;5.13;84.81;100573.22;114659;1209;64352;-87
2021/03/27 05:19:10;;;;;;;2.63;1.43;;;;;;;5.15;85.27;100571.28;114134;1209;64355;-85
2021/03/27 05:21:37;;;;;;;2.20;1.20;;;;;;;5.16;85.50;100586.08;114386;1207;64517;-85
2021/03/27 05:24:04;;;;;;;3.23;1.27;;;;;;;5.18;85.39;100592.02;114991;1209;66144;-85
2021/03/27 05:26:52;;;;;;;5.20;2.00;;;;;;;5.20;85.63;100593.53;114101;1209;64378;-85
2021/03/27 05:29:31;;;;;;;3.45;2.00;;;;;;;5.23;85.39;100584.55;113559;1209;64371;-84
2021/03/27 05:32:27;;;;;;;4.55;1.95;;;;;;;5.23;85.68;100579.30;113433;1209;64362;-85
2021/03/27 05:35:03;;;;;;;2.60;1.60;;;;;;;5.21;86.17;100579.42;113375;1209;64342;-83
2021/03/27 05:37:36;;;;;;;3.33;2.07;;;;;;;5.23;86.95;100593.27;113312;1209;64484;-83
2021/03/27 05:40:24;;;;;;;3.37;2.13;;;;;;;5.24;86.74;100610.69;113428;1209;64384;-82
2021/03/27 05:43:33;;;;;;;2.80;1.37;;;;;;;5.25;84.74;100604.47;113315;1209;64403;-84
2021/03/27 05:46:28;;;;;;;3.13;1.90;;;;;;;5.23;82.62;100610.85;113196;1209;64811;-83
2021/03/27 05:49:23;;;;;;;2.43;1.60;;;;;;;5.22;82.00;100615.26;113170;1209;64431;-82
2021/03/27 05:52:19;;;;;;;2.65;1.40;;;;;;;5.20;82.97;100624.27;113162;1209;64388;-82
2021/03/27 05:55:12;;;;;;;2.60;1.70;;;;;;;5.13;81.34;100631.89;113164;1209;64409;-82
2021/03/27 05:58:21;;;;;;;2.60;1.70;;;;;;;5.11;82.38;100639.91;113341;1209;64387;-80
2021/03/27 06:00:51;;;;;;;2.90;1.63;;;;;;;5.08;83.58;100642.02;112973;1209;64458;-80
2021/03/27 06:03:55;;;;;;;2.65;1.60;;;;;;;5.07;83.95;100648.23;113223;1209;64559;-78
2021/03/27 06:06:51;;;;;;;4.90;2.40;;;;;;;5.05;84.27;100647.55;113186;1209;64416;-80
2021/03/27 06:09:31;;;;;;;3.65;2.15;;;;;;;5.05;84.51;100639.66;113183;1209;64377;-81
2021/03/27 06:12:25;;;;;;;4.53;1.80;;;;;;;5.06;84.21;100670.25;113101;1209;64390;-80
2021/03/27 06:14:58;;;;;;;5.30;2.10;;;;;;;5.08;83.28;100663.05;113235;1209;64348;-80
2021/03/27 06:17:38;;;;;;;2.57;2.07;;;;;;;5.09;82.62;100688.36;113192;1209;64448;-80
2021/03/27 06:20:15;;;;;;;4.63;2.43;;;;;;;5.08;83.80;100689.34;113240;1209;64304;-78
2021/03/27 06:23:06;;;;;;;3.10;2.20;;;;;;;5.04;83.59;100682.70;113153;1209;64368;-80
2021/03/27 06:25:49;;;;;;;4.13;2.70;;;;;;;5.05;84.03;100679.09;113295;1209;65598;-80
2021/03/27 06:28:41;;;;;;;4.15;2.60;;;;;;;5.08;83.93;100687.54;113362;1209;64477;-80
2021/03/27 06:31:29;;;;;;;3.70;2.60;;;;;;;5.13;83.37;100694.19;113153;1209;65184;-79
2021/03/27 06:34:39;;;;;;;4.20;2.60;;;;;;;5.19;82.55;100691.82;113212;1209;64484;-79
2021/03/27 06:37:37;;;;;;;6.67;3.47;;;;;;;5.26;82.86;100700.80;113243;1209;64370;-78
2021/03/27 06:40:22;;;;;;;5.63;3.23;;;;;;;5.33;81.98;100706.32;113204;1209;64384;-79
2021/03/27 06:43:13;;;;;;;9.07;3.07;;;;;;;5.40;80.77;100711.84;113274;1209;64326;-79
2021/03/27 06:46:24;;;;;;;4.33;2.80;;;;;;;5.45;79.83;100715.73;113183;1209;64392;-78
2021/03/27 06:49:15;;;;;;;7.20;2.65;;;;;;;5.48;78.74;100715.46;113323;1209;64831;-78
2021/03/27 06:52:25;;;;;;;5.40;2.90;;;;;;;5.52;79.23;100737.03;113112;1209;64448;-79
2021/03/27 06:55:03;;;;;;;5.73;3.40;;;;;;;5.53;78.57;100743.98;113141;1209;64323;-78
2021/03/27 06:57:46;;;;;;;5.70;2.57;;;;;;;5.52;78.48;100737.03;113106;1209;64473;-79
2021/03/27 07:00:36;;;;;;;4.33;2.63;;;;;;;5.57;78.63;100731.34;113923;1209;64529;-79
2021/03/27 07:03:22;;;;;;;4.67;2.40;;;;;;;5.58;76.85;100736.47;113172;1209;64314;-76
2021/03/27 07:06:11;;;;;;;5.77;2.93;;;;;;;5.59;75.76;100753.94;113049;1209;64371;-75
2021/03/27 07:09:19;;;;;;;3.37;2.10;;;;;;;5.68;74.67;100742.55;112950;1209;64371;-75
2021/03/27 07:12:23;;;;;;;3.63;2.37;;;;;;;5.78;75.04;100746.95;112726;1209;64565;-75
2021/03/27 07:15:02;;;;;;;5.53;2.40;;;;;;;5.78;73.21;100741.69;112959;1209;64502;-76
2021/03/27 07:17:54;;;;;;;5.20;2.25;;;;;;;5.75;72.10;100749.89;112940;1209;64474;-75
2021/03/27 07:20:30;;;;;;;6.10;1.90;;;;;;;5.70;73.18;100740.61;113317;1209;64308;-75
2021/03/27 07:23:28;;;;;;;7.53;1.87;;;;;;;5.64;71.56;100761.41;112927;1209;64355;-75
2021/03/27 07:26:39;;;;;;;3.07;1.67;;;;;;;5.62;72.05;100771.24;112949;1209;64307;-76
2021/03/27 07:29:44;;;;;;;6.03;2.10;;;;;;;5.71;73.13;100763.31;112960;1209;64841;-74
2021/03/27 07:32:30;;;;;;;7.23;2.63;;;;;;;5.80;72.09;100750.28;112899;1209;64256;-74
2021/03/27 07:35:15;;;;;;;5.27;2.00;;;;;;;5.89;71.55;100765.23;112917;1209;64479;-74
2021/03/27 07:38:21;;;;;;;3.85;1.53;;;;;;;5.98;71.86;100759.13;112992;1209;64422;-75
2021/03/27 07:41:15;;;;;;;6.30;1.60;;;;;;;6.12;71.04;100774.48;112914;1209;65348;-73
2021/03/27 07:44:12;;;;;;;5.50;2.40;;;;;;;6.19;70.96;100776.55;112818;1209;64435;-74
2021/03/27 07:47:13;;;;;;;4.60;2.40;;;;;;;6.24;70.64;100771.66;112887;1209;64313;-73
2021/03/27 07:50:14;;;;;;;6.05;2.00;;;;;;;6.26;69.57;100775.80;113234;1209;64502;-75
2021/03/27 07:52:56;;;;;;;7.73;2.50;;;;;;;6.38;69.18;100787.00;112930;1209;64403;-74
2021/03/27 07:56:12;;;;;;;4.87;2.50;;;;;;;6.43;69.63;100768.93;113003;1209;64310;-74
2021/03/27 07:59:00;;;;;;;6.27;2.83;;;;;;;6.49;68.67;100765.72;112898;1209;64521;-74
2021/03/27 08:01:33;;;;;;;4.93;2.70;;;;;;;6.61;68.34;100782.17;112978;1209;64348;-73
2021/03/27 08:04:41;;;;;;;6.63;3.20;;;;;;;6.66;67.85;100765.91;112936;1209;64429;-75
2021/03/27 08:07:21;;;;;;;11.00;3.60;;;;;;;6.74;65.88;100766.01;112921;1209;64463;-75
2021/03/27 08:10:07;;;;;;;6.90;2.73;;;;;;;6.81;66.76;100772.34;112948;1209;64317;-75
2021/03/27 08:13:08;;;;;;;7.57;3.63;;;;;;;6.89;65.47;100788.25;112919;1209;64522;-73
2021/03/27 08:16:09;;;;;;;5.60;3.30;;;;;;;6.96;65.23;100769.20;112962;1209;64432;-74
2021/03/27 08:19:17;;;;;;;11.00;3.95;;;;;;;7.05;65.23;100776.20;113016;1209;64343;-74
2021/03/27 08:22:07;;;;;;;7.10;3.75;;;;;;;7.19;64.86;100786.23;113073;1209;64384;-75
2021/03/27 08:25:05;;;;;;;8.00;3.53;;;;;;;7.36;63.73;100792.50;112901;1209;64349;-74
2021/03/27 08:27:53;;;;;;;10.13;4.33;;;;;;;7.47;62.82;100810.73;112901;1209;64460;-75
2021/03/27 08:30:35;;;;;;;5.40;3.65;;;;;;;7.53;62.24;100796.92;112929;1209;64316;-74
2021/03/27 08:33:04;;;;;;;9.00;4.47;;;;;;;7.71;62.91;100812.77;113009;1209;64416;-76
2021/03/27 08:36:05;;;;;;;8.00;4.10;;;;;;;7.85;62.80;100818.46;112907;1209;65238;-75
2021/03/27 08:38:50;;;;;;;8.93;4.13;;;;;;;7.82;61.90;100803.76;112886;1209;65544;-74
2021/03/27 08:41:42;;;;;;;;;;;;;;;7.71;61.83;100825.11;112941;1217;64323;-74
2021/03/27 08:44:47;;;;;;;8.10;5.27;;;;;;;7.58;63.09;100820.22;112885;1209;64509;-74
2021/03/27 08:47:40;;;;;;;6.87;3.67;;;;;;;7.44;62.66;100823.39;112938;1209;64365;-75
2021/03/27 08:50:33;;;;;;;10.25;4.85;;;;;;;7.31;64.42;100835.17;112914;1209;64340;-75
2021/03/27 08:53:16;;;;;;;9.50;4.50;;;;;;;7.20;67.22;100830.09;113025;1209;64333;-76
2021/03/27 08:56:16;;;;;;;7.57;4.20;;;;;;;6.98;69.02;100846.36;112909;1209;64496;-74
2021/03/27 08:58:59;;;;;;;12.15;5.50;;;;;;;6.66;71.80;100868.72;113426;1209;64819;-76
2021/03/27 09:01:50;;;;;;;10.83;5.73;;;;;;;6.28;70.85;100875.77;112912;1209;64365;-74
2021/03/27 09:04:46;;;;;;;7.80;3.60;;;;;;;6.09;72.97;100843.23;112955;1209;64393;-75
2021/03/27 09:07:26;;;;;;;6.05;2.85;;;;;;;5.98;72.02;100859.20;112925;1209;64413;-75
2021/03/27 09:10:12;;;;;;;5.77;3.63;;;;;;;5.97;73.76;100870.72;113255;1209;64445;-74
2021/03/27 09:13:10;;;;;;;9.60;5.83;;;;;;;5.98;74.51;100869.73;112966;1209;64697;-74
2021/03/27 09:16:30;;;;;;;5.53;2.13;;;;;;;6.03;75.47;100874.57;112903;1209;64377;-73
2021/03/27 09:19:25;;;;;;;7.77;3.67;;;;;;;6.15;74.90;100870.81;112896;1209;65217;-75
2021/03/27 09:22:13;;;;;;;12.40;5.57;;;;;;;6.24;74.69;100864.68;112923;1209;64374;-74
2021/03/27 09:24:52;;;;;;;8.20;5.03;;;;;;;6.34;74.80;100864.67;112959;1209;64488;-74
2021/03/27 09:27:47;;;;;;;11.60;5.20;;;;;;;6.47;74.07;100873.08;112879;1209;65599;-75
2021/03/27 09:30:22;;;;;;;13.60;5.53;;;;;;;6.67;71.55;100883.55;112903;1209;64413;-75
2021/03/27 09:33:21;;;;;;;7.00;3.90;;;;;;;7.00;71.69;100886.61;112947;1209;64377;-73
2021/03/27 09:36:03;;;;;;;6.80;3.75;;;;;;;7.50;69.86;100875.58;112941;1209;64832;-75
2021/03/27 09:38:44;;;;;;;6.80;3.95;;;;;;;7.89;67.42;100888.48;112881;1209;64457;-74
2021/03/27 09:41:40;;;;;;;6.23;2.73;;;;;;;8.11;65.52;100887.98;112944;1209;64458;-75
2021/03/27 09:44:35;;;;;;;3.93;2.63;;;;;;;8.24;64.33;100886.76;113045;1209;64451;-75
2021/03/27 09:47:11;;;;;;;6.73;2.43;;;;;;;8.38;63.15;100873.80;112919;1209;65622;-75
2021/03/27 09:49:55;;;;;;;5.70;2.00;;;;;;;8.39;62.68;100879.91;113004;1209;64451;-74
2021/03/27 09:52:58;;;;;;;7.00;2.73;;;;;;;8.24;60.64;100886.76;112880;1209;64377;-74
2021/03/27 09:55:40;;;;;;;8.10;2.70;;;;;;;7.99;63.44;100902.45;112861;1209;65548;-73
2021/03/27 09:58:31;;;;;;;4.87;1.60;;;;;;;7.58;65.46;100989.19;112957;1209;64343;-74
2021/03/27 10:01:15;;;;;;;2.90;1.70;;;;;;;5.81;70.39;101000.23;112950;1209;64439;-71
2021/03/27 10:04:11;;;;;;;1.03;0.53;;;;;;;4.51;75.59;101019.34;113007;1209;64480;-75
2021/03/27 10:07:16;;;;;;;1.30;0.67;;;;;;;3.62;80.40;101030.02;112892;1208;64493;-74
2021/03/27 10:10:19;;;;;;;4.33;0.63;;;;;;;3.13;83.72;101041.72;112951;1209;64889;-75
2021/03/27 10:13:09;;;;;;;1.45;0.60;;;;;;;2.75;85.22;101062.01;112873;1209;64824;-74
2021/03/27 10:15:51;;;;;;;1.93;0.90;;;;;;;2.49;86.13;101073.58;112905;1209;64381;-75
2021/03/27 10:18:22;;;;;;;3.20;1.60;;;;;;;2.33;87.30;101085.18;112948;1209;64378;-76
2021/03/27 10:20:54;;;;;;;3.10;0.90;;;;;;;2.28;87.91;101089.93;113012;1209;64444;-74
2021/03/27 10:23:37;;;;;;;1.67;0.90;;;;;;;2.26;88.54;101072.67;112907;1209;64496;-73
2021/03/27 10:26:29;;;;;;;6.65;1.30;;;;;;;2.29;88.52;101073.26;113181;1209;64413;-76
2021/03/27 10:29:11;;;;;;;1.63;1.00;;;;;;;2.38;88.84;101071.75;112973;1209;64426;-74
2021/03/27 10:31:45;;;;;;;2.63;1.03;;;;;;;2.49;88.29;101063.09;112932;1209;64359;-75
2021/03/27 10:34:39;;;;;;;3.47;1.53;;;;;;;2.61;88.20;101042.10;112879;1209;64483;-72
2021/03/27 10:37:34;;;;;;;3.90;1.37;;;;;;;2.78;87.89;101042.59;112963;1209;65684;-74
2021/03/27 10:40:33;;;;;;;2.20;1.28;;;;;;;2.90;87.55;101046.09;113848;1209;64378;-74
2021/03/27 10:43:25;;;;;;;2.13;0.67;;;;;;;3.06;87.30;101036.11;112950;1209;65572;-74
2021/03/27 10:46:34;;;;;;;1.60;0.80;;;;;;;3.32;86.35;101043.75;112924;1209;64371;-74
2021/03/27 10:49:03;;;;;;;6.65;1.30;;;;;;;3.66;85.67;101055.88;112863;1209;64518;-76
2021/03/27 10:52:08;;;;;;;4.45;1.00;;;;;;;3.95;83.16;101071.08;112951;1209;64361;-74
2021/03/27 10:55:03;;;;;;;5.20;1.10;;;;;;;4.29;82.59;101066.59;113843;1209;64387;-74
2021/03/27 10:58:09;;;;;;;2.88;1.35;;;;;;;4.62;82.68;101063.94;112955;1209;64387;-74
2021/03/27 11:00:36;;;;;;;;;;;;;;;4.88;79.89;101064.39;112914;1217;64426;-74
2021/03/27 11:03:29;;;;;;;7.57;1.20;;;;;;;5.06;79.87;101081.25;112949;1209;64451;-75
2021/03/27 11:06:19;;;;;;;9.10;1.40;;;;;;;5.20;77.20;101093.22;112870;1209;64898;-74
2021/03/27 11:09:07;;;;;;;5.97;1.43;;;;;;;5.31;77.42;101081.78;112868;1209;64326;-77
2021/03/27 11:11:36;;;;;;;3.17;1.17;;;;;;;5.55;77.23;101083.27;112971;1209;64544;-75
2021/03/27 11:14:28;;;;;;;3.67;1.17;;;;;;;5.79;75.67;101090.85;112883;1209;64339;-75
2021/03/27 11:17:17;;;;;;;3.67;0.87;;;;;;;6.05;75.50;101086.77;112916;1209;64381;-74
2021/03/27 11:19:55;;;;;;;7.00;1.60;;;;;;;6.27;73.76;101090.16;112921;1209;64512;-74
2021/03/27 11:22:33;;;;;;;7.97;1.93;;;;;;;6.51;73.47;101093.20;112988;1209;64333;-74
2021/03/27 11:25:15;;;;;;;2.83;1.20;;;;;;;6.63;72.88;101096.55;113213;1209;64374;-75
2021/03/27 11:28:12;;;;;;;3.63;1.70;;;;;;;6.68;69.95;101133.03;113042;1209;64458;-75
2021/03/27 11:30:55;;;;;;;2.50;0.95;;;;;;;6.64;71.17;101119.29;113078;1209;65723;-75
2021/03/27 11:33:32;;;;;;;5.07;1.40;;;;;;;6.62;70.93;101115.13;112902;1209;65327;-75
2021/03/27 11:36:08;;;;;;;3.43;1.50;;;;;;;6.75;71.73;101118.31;113208;1209;64409;-75
2021/03/27 11:39:02;;;;;;;5.30;1.60;;;;;;;6.83;70.38;101144.82;112943;1209;65569;-75
2021/03/27 11:41:38;;;;;;;3.93;1.23;;;;;;;6.81;69.74;101141.48;113745;1209;64339;-75
2021/03/27 11:44:15;;;;;;;6.57;2.50;;;;;;;6.88;68.87;101153.14;113169;1209;64435;-75
2021/03/27 11:46:52;;;;;;;5.23;1.53;;;;;;;7.04;66.79;101135.94;112868;1209;64345;-75
2021/03/27 11:49:26;;;;;;;4.10;0.97;;;;;;;7.26;66.90;101129.48;112967;1209;64368;-74
2021/03/27 11:52:08;;;;;;;5.80;1.60;;;;;;;7.43;67.21;101167.52;113030;1209;64310;-75
2021/03/27 11:54:53;;;;;;;2.63;1.40;;;;;;;7.53;67.27;101139.28;113198;1209;64381;-74
2021/03/27 11:57:34;;;;;;;3.93;1.20;;;;;;;7.48;64.17;101162.63;113015;1209;64723;-75
2021/03/27 12:03:12;;;;;;;4.60;1.47;;;;;;;7.86;64.53;101150.27;112925;1209;64308;-75
2021/03/27 12:05:53;;;;;;;3.97;1.50;;;;;;;8.28;59.60;101147.13;112927;1209;64387;-74
2021/03/27 12:08:28;;;;;;;4.63;1.40;;;;;;;8.41;60.29;101146.80;112936;1209;64358;-75
2021/03/27 12:11:29;;;;;;;4.07;1.53;;;;;;;8.68;63.08;101133.51;112870;1209;65690;-74
2021/03/27 12:14:15;;;;;;;3.83;1.23;;;;;;;8.65;58.58;101164.70;112934;1209;64480;-74
2021/03/27 12:17:01;;;;;;;3.60;1.27;;;;;;;8.87;57.95;101152.86;112920;1209;64397;-75
2021/03/27 12:19:46;;;;;;;7.50;1.83;;;;;;;8.79;60.54;101156.25;112886;1209;64384;-75
2021/03/27 12:22:21;;;;;;;2.50;1.10;;;;;;;9.21;56.59;101147.66;112999;1209;64857;-75
2021/03/27 12:25:08;;;;;;;3.40;1.30;;;;;;;9.77;55.33;101151.61;112935;1209;64486;-76
2021/03/27 12:27:38;;;;;;;4.53;1.20;;;;;;;10.01;50.41;101158.03;112919;1209;64418;-75
2021/03/27 12:30:14;;;;;;;2.37;0.93;;;;;;;10.12;49.98;101155.08;112917;1209;65455;-73
2021/03/27 12:33:11;;;;;;;5.80;1.50;;;;;;;10.12;49.15;101157.73;112900;1209;64413;-74
2021/03/27 12:35:44;;;;;;;4.10;0.90;;;;;;;10.05;52.32;101169.98;112965;1209;64352;-74
2021/03/27 12:38:19;;;;;;;7.30;1.55;;;;;;;9.61;53.23;101148.91;113059;1209;64409;-75
2021/03/27 12:41:02;;;;;;;5.67;1.30;;;;;;;8.95;52.61;101166.16;112943;1209;64400;-74
2021/03/27 12:43:32;;;;;;;4.75;1.20;;;;;;;7.61;61.65;101340.06;113007;1209;64380;-74
2021/03/27 12:46:42;;;;;;;2.47;0.60;;;;;;;5.69;67.40;101291.69;112908;1209;64317;-75
2021/03/27 12:49:26;;;;;;;1.33;0.57;;;;;;;4.07;74.82;101311.64;112897;1209;64387;-74
2021/03/27 12:52:30;;;;;;;1.20;0.60;;;;;;;3.30;78.17;101329.67;112914;1209;64471;-75
2021/03/27 12:55:15;;;;;;;1.53;0.50;;;;;;;2.81;82.55;101325.34;113066;1209;64390;-74
2021/03/27 12:57:50;;;;;;;2.45;0.40;;;;;;;2.51;83.85;101329.18;112913;1209;64355;-74